createdAt,value
2018-06-10T00:01:42.834Z,12.07
2018-06-10T00:04:12.150Z,14.13
2018-06-10T00:06:41.438Z,13.07
2018-06-10T00:09:10.874Z,12.30
2018-06-10T00:11:40.177Z,11.37
2018-06-10T00:14:09.533Z,13.40
2018-06-10T00:16:38.861Z,11.53
2018-06-10T00:19:08.212Z,11.37
2018-06-10T00:21:37.558Z,12.53
2018-06-10T00:24:06.953Z,9.53
2018-06-10T00:26:36.306Z,12.50
2018-06-10T00:29:10.995Z,10.83
2018-06-10T00:31:40.349Z,14.10
2018-06-10T00:34:09.737Z,10.60
2018-06-10T00:36:39.121Z,10.20
2018-06-10T00:39:08.919Z,10.53
2018-06-10T00:41:38.511Z,9.70
2018-06-10T00:44:07.955Z,10.60
2018-06-10T00:46:37.329Z,10.30
2018-06-10T00:49:06.648Z,10.43
2018-06-10T00:51:35.962Z,8.90
2018-06-10T00:54:05.568Z,8.13
2018-06-10T00:56:51.667Z,8.23
2018-06-10T00:59:21.058Z,7.23
2018-06-10T01:01:50.486Z,10.73
2018-06-10T01:04:20.230Z,9.90
2018-06-10T01:06:49.335Z,9.40
2018-06-10T01:09:18.683Z,7.37
2018-06-10T01:11:47.999Z,7.67
2018-06-10T01:14:17.345Z,10.47
2018-06-10T01:16:46.713Z,7.67
2018-06-10T01:19:16.065Z,9.53
2018-06-10T01:21:45.357Z,6.80
2018-06-10T01:24:14.759Z,7.27
2018-06-10T01:26:49.308Z,8.17
2018-06-10T01:29:19.125Z,7.07
2018-06-10T01:31:48.489Z,6.90
2018-06-10T01:34:17.875Z,7.67
2018-06-10T01:36:47.198Z,6.23
2018-06-10T01:39:16.518Z,6.60
2018-06-10T01:41:45.818Z,6.30
2018-06-10T01:44:15.206Z,8.07
2018-06-10T01:46:44.509Z,6.77
2018-06-10T01:49:13.958Z,8.20
2018-06-10T01:51:43.261Z,7.40
2018-06-10T01:54:12.630Z,8.17
2018-06-10T01:56:42.035Z,8.37
2018-06-10T01:59:11.340Z,6.60
2018-06-10T02:01:40.645Z,7.87
2018-06-10T02:04:10.301Z,7.90
2018-06-10T02:06:39.601Z,7.90
2018-06-10T02:09:08.997Z,6.77
2018-06-10T02:11:38.446Z,7.33
2018-06-10T02:14:07.761Z,7.40
2018-06-10T02:16:37.061Z,7.40
2018-06-10T02:19:06.599Z,7.33
2018-06-10T02:21:35.901Z,6.93
2018-06-10T02:24:05.212Z,8.17
2018-06-10T02:26:34.833Z,6.70
2018-06-10T02:29:04.211Z,7.17
2018-06-10T02:31:33.557Z,7.30
2018-06-10T02:34:02.964Z,8.13
2018-06-10T02:36:32.266Z,9.00
2018-06-10T02:39:01.595Z,6.93
2018-06-10T02:41:30.870Z,6.00
2018-06-10T02:44:00.199Z,8.47
2018-06-10T02:46:29.658Z,6.97
2018-06-10T02:48:59.001Z,7.37
2018-06-10T02:51:28.372Z,7.30
2018-06-10T02:53:57.721Z,8.17
2018-06-10T02:56:27.081Z,9.07
2018-06-10T02:58:56.367Z,7.13
2018-06-10T03:01:25.738Z,7.67
2018-06-10T03:03:55.090Z,9.23
2018-06-10T03:06:24.487Z,8.40
2018-06-10T03:08:53.834Z,7.87
2018-06-10T03:11:23.291Z,9.70
2018-06-10T03:13:52.743Z,7.37
2018-06-10T03:16:22.533Z,8.20
2018-06-10T03:18:52.039Z,8.73
2018-06-10T03:21:21.459Z,8.00
2018-06-10T03:23:51.260Z,11.13
2018-06-10T03:26:20.657Z,8.40
2018-06-10T03:28:50.082Z,8.50
2018-06-10T03:31:19.519Z,9.90
2018-06-10T03:33:48.955Z,8.93
2018-06-10T03:36:18.326Z,11.10
2018-06-10T03:38:47.738Z,10.53
2018-06-10T03:41:17.174Z,9.33
2018-06-10T03:43:46.571Z,8.87
2018-06-10T03:46:15.908Z,10.20
2018-06-10T03:48:45.337Z,10.17
2018-06-10T03:51:14.740Z,9.53
2018-06-10T03:53:44.096Z,9.90
2018-06-10T03:56:13.502Z,9.60
2018-06-10T03:58:42.848Z,10.60
2018-06-10T04:01:12.606Z,10.57
2018-06-10T04:03:42.057Z,9.20
2018-06-10T04:06:11.438Z,10.40
2018-06-10T04:08:40.869Z,10.63
2018-06-10T04:11:10.259Z,9.93
2018-06-10T04:13:39.721Z,11.30
2018-06-10T04:16:09.165Z,11.87
2018-06-10T04:18:38.639Z,11.93
2018-06-10T04:21:08.191Z,12.60
2018-06-10T04:23:37.258Z,12.97
2018-06-10T04:26:06.748Z,11.93
2018-06-10T04:28:36.155Z,11.77
2018-06-10T04:31:05.539Z,13.87
2018-06-10T04:33:34.969Z,13.00
2018-06-10T04:36:04.357Z,12.90
2018-06-10T04:38:33.730Z,13.37
2018-06-10T04:41:03.125Z,16.93
2018-06-10T04:43:32.519Z,14.03
2018-06-10T04:46:01.966Z,15.17
2018-06-10T04:48:31.677Z,12.97
2018-06-10T04:51:01.030Z,10.93
2018-06-10T04:53:30.448Z,11.97
2018-06-10T04:55:59.889Z,11.63
2018-06-10T04:58:29.313Z,11.50
2018-06-10T05:00:58.695Z,14.93
2018-06-10T05:03:28.089Z,12.17
2018-06-10T05:05:57.429Z,10.87
2018-06-10T05:08:27.095Z,12.70
2018-06-10T05:10:56.525Z,10.53
2018-06-10T05:13:25.955Z,11.57
2018-06-10T05:15:55.393Z,10.83
2018-06-10T05:18:24.806Z,10.63
2018-06-10T05:20:54.367Z,10.47
2018-06-10T05:23:23.836Z,12.30
2018-06-10T05:25:53.209Z,10.17
2018-06-10T05:28:22.684Z,10.43
2018-06-10T05:30:52.105Z,9.33
2018-06-10T05:33:21.474Z,11.27
2018-06-10T05:35:50.823Z,11.37
2018-06-10T05:38:20.233Z,9.00
2018-06-10T05:40:49.668Z,9.20
2018-06-10T05:43:19.089Z,9.80
2018-06-10T05:45:48.457Z,10.37
2018-06-10T05:48:17.779Z,10.37
2018-06-10T05:50:47.131Z,9.20
2018-06-10T05:53:16.482Z,9.07
2018-06-10T05:55:45.814Z,10.57
2018-06-10T05:58:15.139Z,8.20
2018-06-10T06:00:44.542Z,9.13
2018-06-10T06:03:13.941Z,8.50
2018-06-10T06:05:43.343Z,9.10
2018-06-10T06:08:12.833Z,9.40
2018-06-10T06:10:42.215Z,7.33
2018-06-10T06:13:11.741Z,8.23
2018-06-10T06:15:41.250Z,7.90
2018-06-10T06:18:11.029Z,7.70
2018-06-10T06:20:40.515Z,9.80
2018-06-10T06:23:10.079Z,8.27
2018-06-10T06:25:39.525Z,8.80
2018-06-10T06:28:09.039Z,7.70
2018-06-10T06:30:38.393Z,7.37
2018-06-10T06:33:07.863Z,8.10
2018-06-10T06:35:37.275Z,8.23
2018-06-10T06:38:06.693Z,8.57
2018-06-10T06:40:52.662Z,8.33
2018-06-10T06:43:22.163Z,8.37
2018-06-10T06:45:51.903Z,7.90
2018-06-10T06:48:21.400Z,7.77
2018-06-10T06:50:50.766Z,8.97
2018-06-10T06:53:20.120Z,8.93
2018-06-10T06:55:49.498Z,10.70
2018-06-10T06:58:18.862Z,8.07
2018-06-10T07:00:48.264Z,8.93
2018-06-10T07:03:17.588Z,8.87
2018-06-10T07:05:53.332Z,7.97
2018-06-10T07:08:22.767Z,7.73
2018-06-10T07:10:52.215Z,8.33
2018-06-10T07:13:21.978Z,8.00
2018-06-10T07:15:51.420Z,8.00
2018-06-10T07:18:20.775Z,7.43
2018-06-10T07:20:50.236Z,8.83
2018-06-10T07:23:19.643Z,8.10
2018-06-10T07:25:49.046Z,7.60
2018-06-10T07:28:18.187Z,8.68
2018-06-10T07:30:47.690Z,8.33
2018-06-10T07:33:17.115Z,9.13
2018-06-10T07:35:46.555Z,7.93
2018-06-10T07:38:15.933Z,7.37
2018-06-10T07:40:45.361Z,8.00
2018-06-10T07:43:14.763Z,7.77
2018-06-10T07:45:44.184Z,7.93
2018-06-10T07:48:13.581Z,9.10
2018-06-10T07:50:42.970Z,8.80
2018-06-10T07:53:12.428Z,10.43
2018-06-10T07:55:41.766Z,8.27
2018-06-10T07:58:11.098Z,10.57
2018-06-10T08:00:40.458Z,8.97
2018-06-10T08:03:09.797Z,8.83
2018-06-10T08:05:39.205Z,8.80
2018-06-10T08:08:08.551Z,9.03
2018-06-10T08:10:37.971Z,9.87
2018-06-10T08:13:07.319Z,9.57
2018-06-10T08:15:36.642Z,9.93
2018-06-10T08:18:06.104Z,10.57
2018-06-10T08:20:35.812Z,12.40
2018-06-10T08:23:05.894Z,9.77
2018-06-10T08:25:35.371Z,9.73
2018-06-10T08:28:04.955Z,10.43
2018-06-10T08:30:34.355Z,10.50
2018-06-10T08:33:04.124Z,11.57
2018-06-10T08:35:36.611Z,9.93
2018-06-10T08:38:06.065Z,11.20
2018-06-10T08:40:35.517Z,10.87
2018-06-10T08:43:05.051Z,12.23
2018-06-10T08:45:34.567Z,13.43
2018-06-10T08:48:07.641Z,11.60
2018-06-10T08:50:36.972Z,11.17
2018-06-10T08:53:06.458Z,10.65
2018-06-10T08:55:35.627Z,10.28
2018-06-10T08:58:05.242Z,11.33
2018-06-10T09:00:34.720Z,11.23
2018-06-10T09:03:04.163Z,11.03
2018-06-10T09:05:33.617Z,10.87
2018-06-10T09:08:03.069Z,11.07
2018-06-10T09:10:32.558Z,11.35
2018-06-10T09:13:02.541Z,11.05
2018-06-10T09:15:31.985Z,11.33
2018-06-10T09:18:01.385Z,10.65
2018-06-10T09:20:30.813Z,20.55
2018-06-10T09:23:00.292Z,14.95
2018-06-10T09:25:29.690Z,10.63
2018-06-10T09:27:59.085Z,11.28
2018-06-10T09:30:28.670Z,14.30
2018-06-10T09:32:58.318Z,10.40
2018-06-10T09:35:27.951Z,13.50
2018-06-10T09:37:57.469Z,13.13
2018-06-10T09:40:26.998Z,12.15
2018-06-10T09:42:57.102Z,12.15
2018-06-10T09:45:26.639Z,12.50
2018-06-10T09:47:56.272Z,13.60
2018-06-10T09:50:25.961Z,12.53
2018-06-10T09:52:55.583Z,11.33
2018-06-10T09:55:25.523Z,11.08
2018-06-10T09:57:55.215Z,11.22
2018-06-10T10:00:25.072Z,10.82
2018-06-10T10:02:55.352Z,10.80
2018-06-10T10:05:25.141Z,11.43
2018-06-10T10:07:54.717Z,12.03
2018-06-10T10:10:24.416Z,12.05
2018-06-10T10:12:54.007Z,12.53
2018-06-10T10:15:23.550Z,12.30
2018-06-10T10:17:53.142Z,11.93
2018-06-10T10:20:22.738Z,11.28
2018-06-10T10:22:52.752Z,10.70
2018-06-10T10:25:22.487Z,10.38
2018-06-10T10:27:51.923Z,9.78
2018-06-10T10:30:22.802Z,11.00
2018-06-10T10:32:52.282Z,11.22
2018-06-10T10:35:21.927Z,24.20
2018-06-10T10:37:51.587Z,13.78
2018-06-10T10:40:24.379Z,10.95
2018-06-10T10:42:54.166Z,10.75
2018-06-10T10:45:23.886Z,10.03
2018-06-10T10:47:53.392Z,10.25
2018-06-10T10:50:23.007Z,10.25
2018-06-10T10:52:52.695Z,11.68
2018-06-10T10:55:22.145Z,10.28
2018-06-10T10:57:51.614Z,10.40
2018-06-10T11:00:21.081Z,10.50
2018-06-10T11:02:50.561Z,9.53
2018-06-10T11:05:20.124Z,9.55
2018-06-10T11:07:49.587Z,9.40
2018-06-10T11:10:19.106Z,9.40
2018-06-10T11:12:49.091Z,21.25
2018-06-10T11:15:18.545Z,8.30
2018-06-10T11:17:48.116Z,10.78
2018-06-10T11:20:17.551Z,9.73
2018-06-10T11:22:46.984Z,9.73
2018-06-10T11:25:16.420Z,10.65
2018-06-10T11:27:45.744Z,10.00
2018-06-10T11:30:15.153Z,10.08
2018-06-10T11:32:44.592Z,13.45
2018-06-10T11:35:14.127Z,14.05
2018-06-10T11:37:44.134Z,10.32
2018-06-10T11:40:13.599Z,9.40
2018-06-10T11:42:43.033Z,14.20
2018-06-10T11:45:12.535Z,10.98
2018-06-10T11:47:41.868Z,9.50
2018-06-10T11:50:11.202Z,13.15
2018-06-10T11:52:40.621Z,17.98
2018-06-10T11:55:09.969Z,9.33
2018-06-10T11:57:39.376Z,8.20
2018-06-10T12:00:08.729Z,8.18
2018-06-10T12:02:38.100Z,8.03
2018-06-10T12:05:07.563Z,7.85
2018-06-10T12:07:36.660Z,7.83
2018-06-10T12:10:06.059Z,8.03
2018-06-10T12:12:35.528Z,8.75
2018-06-10T12:15:05.134Z,9.43
2018-06-10T12:17:34.514Z,9.85
2018-06-10T12:20:04.016Z,9.10
2018-06-10T12:22:33.418Z,9.60
2018-06-10T12:25:02.902Z,9.55
2018-06-10T12:27:32.375Z,8.73
2018-06-10T12:30:01.884Z,8.75
2018-06-10T12:32:31.259Z,9.78
2018-06-10T12:35:00.682Z,8.90
2018-06-10T12:37:30.168Z,11.05
2018-06-10T12:39:59.581Z,9.60
2018-06-10T12:42:29.083Z,9.75
2018-06-10T12:44:58.634Z,8.93
2018-06-10T12:47:27.990Z,10.80
2018-06-10T12:49:57.442Z,10.32
2018-06-10T12:52:27.205Z,14.43
2018-06-10T12:54:56.726Z,9.68
2018-06-10T12:57:26.194Z,11.35
2018-06-10T12:59:55.755Z,10.40
2018-06-10T13:02:25.204Z,10.58
2018-06-10T13:04:54.787Z,9.98
2018-06-10T13:07:24.579Z,10.43
2018-06-10T13:09:54.292Z,10.50
2018-06-10T13:12:24.108Z,9.03
2018-06-10T13:14:53.745Z,9.50
2018-06-10T13:17:23.293Z,10.00
2018-06-10T13:19:53.437Z,11.13
2018-06-10T13:22:23.320Z,11.10
2018-06-10T13:24:53.195Z,11.20
2018-06-10T13:27:22.637Z,11.35
2018-06-10T13:29:52.442Z,11.53
2018-06-10T13:32:23.348Z,10.70
2018-06-10T13:34:53.503Z,10.98
2018-06-10T13:37:23.673Z,10.90
2018-06-10T13:39:59.876Z,11.30
2018-06-10T13:42:29.328Z,11.53
2018-06-10T13:44:58.947Z,12.80
2018-06-10T13:47:29.267Z,11.95
2018-06-10T13:49:58.832Z,10.48
2018-06-10T13:52:28.214Z,10.95
2018-06-10T13:54:57.866Z,10.93
2018-06-10T13:57:27.400Z,10.30
2018-06-10T13:59:57.449Z,11.55
2018-06-10T14:02:27.161Z,10.48
2018-06-10T14:04:56.659Z,10.58
2018-06-10T14:07:26.443Z,9.58
2018-06-10T14:09:55.937Z,10.23
2018-06-10T14:12:25.449Z,9.68
2018-06-10T14:14:54.953Z,9.55
2018-06-10T14:17:24.521Z,11.33
2018-06-10T14:19:54.028Z,13.22
2018-06-10T14:22:23.721Z,11.57
2018-06-10T14:24:53.639Z,8.55
2018-06-10T14:27:23.381Z,9.43
2018-06-10T14:29:53.308Z,9.40
2018-06-10T14:32:22.800Z,9.05
2018-06-10T14:34:52.446Z,7.53
2018-06-10T14:37:23.093Z,7.08
2018-06-10T14:39:52.668Z,6.72
2018-06-10T14:42:22.101Z,7.85
2018-06-10T14:44:51.591Z,7.97
2018-06-10T14:47:21.061Z,8.33
2018-06-10T14:49:50.470Z,8.45
2018-06-10T14:52:19.905Z,8.43
2018-06-10T14:54:49.485Z,9.98
2018-06-10T14:57:18.918Z,9.23
2018-06-10T14:59:48.460Z,7.25
2018-06-10T15:02:17.789Z,7.72
2018-06-10T15:04:47.201Z,7.72
2018-06-10T15:07:16.672Z,7.53
2018-06-10T15:09:47.085Z,7.20
2018-06-10T15:12:17.001Z,8.23
2018-06-10T15:14:46.466Z,6.78
2018-06-10T15:17:16.801Z,6.70
2018-06-10T15:19:46.183Z,6.67
2018-06-10T15:22:15.602Z,7.22
2018-06-10T15:24:45.018Z,10.50
2018-06-10T15:27:14.460Z,6.35
2018-06-10T15:29:44.048Z,5.40
2018-06-10T15:32:13.447Z,5.50
2018-06-10T15:34:42.921Z,4.40
2018-06-10T15:37:12.353Z,5.20
2018-06-10T15:39:41.753Z,6.37
2018-06-10T15:42:11.380Z,5.40
2018-06-10T15:44:40.870Z,4.30
2018-06-10T15:47:14.463Z,4.70
2018-06-10T15:49:44.979Z,4.50
2018-06-10T15:52:14.402Z,5.83
2018-06-10T15:54:43.909Z,4.90
2018-06-10T15:57:13.410Z,4.65
2018-06-10T15:59:42.805Z,4.58
2018-06-10T16:02:12.219Z,4.95
2018-06-10T16:04:41.596Z,5.70
2018-06-10T16:07:11.025Z,4.97
2018-06-10T16:09:40.423Z,5.10
2018-06-10T16:12:10.056Z,7.65
2018-06-10T16:14:39.627Z,5.95
2018-06-10T16:17:09.228Z,6.20
2018-06-10T16:19:38.641Z,5.95
2018-06-10T16:22:08.096Z,5.30
2018-06-10T16:24:37.588Z,5.30
2018-06-10T16:27:07.211Z,5.47
2018-06-10T16:29:37.067Z,6.83
2018-06-10T16:32:06.457Z,5.35
2018-06-10T16:34:36.183Z,5.92
2018-06-10T16:37:09.653Z,6.08
2018-06-10T16:39:39.231Z,4.55
2018-06-10T16:42:08.795Z,4.90
2018-06-10T16:44:38.180Z,4.87
2018-06-10T16:47:07.529Z,7.42
2018-06-10T16:49:37.046Z,5.20
2018-06-10T16:52:06.510Z,5.05
2018-06-10T16:54:35.906Z,4.92
2018-06-10T16:57:05.445Z,4.97
2018-06-10T16:59:34.873Z,4.85
2018-06-10T17:02:04.311Z,4.90
2018-06-10T17:04:33.917Z,5.60
2018-06-10T17:07:03.333Z,5.75
2018-06-10T17:09:32.777Z,5.00
2018-06-10T17:12:02.273Z,6.55
2018-06-10T17:14:31.750Z,5.78
2018-06-10T17:17:01.126Z,4.90
2018-06-10T17:19:30.587Z,5.67
2018-06-10T17:22:00.109Z,4.30
2018-06-10T17:24:29.696Z,4.90
2018-06-10T17:26:59.209Z,7.42
2018-06-10T17:29:28.659Z,5.40
2018-06-10T17:31:58.206Z,5.55
2018-06-10T17:34:27.830Z,10.15
2018-06-10T17:36:57.441Z,5.78
2018-06-10T17:39:27.101Z,5.55
2018-06-10T17:41:56.641Z,5.92
2018-06-10T17:44:26.174Z,5.85
2018-06-10T17:46:56.680Z,6.78
2018-06-10T17:49:26.106Z,6.28
2018-06-10T17:51:55.581Z,6.78
2018-06-10T17:54:25.232Z,4.90
2018-06-10T17:56:55.340Z,5.45
2018-06-10T17:59:24.883Z,5.25
2018-06-10T18:01:54.427Z,6.60
2018-06-10T18:04:24.103Z,5.00
2018-06-10T18:06:53.863Z,7.30
2018-06-10T18:09:23.389Z,5.35
2018-06-10T18:11:53.183Z,11.08
2018-06-10T18:14:22.555Z,5.03
2018-06-10T18:16:51.981Z,5.40
2018-06-10T18:19:21.422Z,5.90
2018-06-10T18:21:50.971Z,4.45
2018-06-10T18:24:20.395Z,6.08
2018-06-10T18:26:49.774Z,7.40
2018-06-10T18:29:19.106Z,8.00
2018-06-10T18:31:48.534Z,9.00
2018-06-10T18:34:17.970Z,6.55
2018-06-10T18:36:47.413Z,5.03
2018-06-10T18:39:16.891Z,4.85
2018-06-10T18:41:46.390Z,5.22
2018-06-10T18:44:16.687Z,5.42
2018-06-10T18:46:46.215Z,4.80
2018-06-10T18:49:15.381Z,5.53
2018-06-10T18:51:45.982Z,5.37
2018-06-10T18:54:15.507Z,4.60
2018-06-10T18:56:45.021Z,6.05
2018-06-10T18:59:14.558Z,5.08
2018-06-10T19:01:43.993Z,5.03
2018-06-10T19:04:15.017Z,5.87
2018-06-10T19:06:44.402Z,6.25
2018-06-10T19:09:13.971Z,6.55
2018-06-10T19:11:43.667Z,6.00
2018-06-10T19:14:13.106Z,5.67
2018-06-10T19:16:42.545Z,5.53
2018-06-10T19:19:11.972Z,5.10
2018-06-10T19:21:41.459Z,6.85
2018-06-10T19:24:10.879Z,5.85
2018-06-10T19:26:40.270Z,7.53
2018-06-10T19:29:09.658Z,6.40
2018-06-10T19:31:39.090Z,7.87
2018-06-10T19:34:08.482Z,8.50
2018-06-10T19:36:37.886Z,18.45
2018-06-10T19:39:08.993Z,14.33
2018-06-10T19:41:38.497Z,9.30
2018-06-10T19:44:07.924Z,7.50
2018-06-10T19:46:37.407Z,6.80
2018-06-10T19:49:06.849Z,7.47
2018-06-10T19:51:36.199Z,8.13
2018-06-10T19:54:05.854Z,6.70
2018-06-10T19:56:35.271Z,6.85
2018-06-10T19:59:04.690Z,8.40
2018-06-10T20:01:34.299Z,7.22
2018-06-10T20:04:03.841Z,7.12
2018-06-10T20:06:33.272Z,7.57
2018-06-10T20:09:02.747Z,7.30
2018-06-10T20:11:32.225Z,7.10
2018-06-10T20:14:01.664Z,7.87
2018-06-10T20:16:31.265Z,7.80
2018-06-10T20:19:00.925Z,8.90
2018-06-10T20:21:30.412Z,9.23
2018-06-10T20:23:59.914Z,7.07
2018-06-10T20:26:29.491Z,8.50
2018-06-10T20:28:59.445Z,8.10
2018-06-10T20:31:29.082Z,7.57
2018-06-10T20:33:58.762Z,8.10
2018-06-10T20:36:29.351Z,7.67
2018-06-10T20:38:58.901Z,8.33
2018-06-10T20:41:28.443Z,7.47
2018-06-10T20:43:57.959Z,7.70
2018-06-10T20:46:27.405Z,8.10
2018-06-10T20:48:56.979Z,7.97
2018-06-10T20:51:26.501Z,8.17
2018-06-10T20:53:55.999Z,7.77
2018-06-10T20:56:25.527Z,8.00
2018-06-10T20:59:00.246Z,8.40
2018-06-10T21:01:31.024Z,9.60
2018-06-10T21:04:00.506Z,8.43
2018-06-10T21:06:29.887Z,7.93
2018-06-10T21:08:59.585Z,8.37
2018-06-10T21:11:28.933Z,8.37
2018-06-10T21:13:58.298Z,8.53
2018-06-10T21:16:27.907Z,9.70
2018-06-10T21:18:57.321Z,9.00
2018-06-10T21:21:26.772Z,10.20
2018-06-10T21:23:56.221Z,9.57
2018-06-10T21:26:25.632Z,10.33
2018-06-10T21:28:55.421Z,10.13
2018-06-10T21:31:25.046Z,9.97
2018-06-10T21:33:54.675Z,9.83
2018-06-10T21:36:24.085Z,11.17
2018-06-10T21:38:53.582Z,10.47
2018-06-10T21:41:22.982Z,10.07
2018-06-10T21:43:52.419Z,10.30
2018-06-10T21:46:21.926Z,9.50
2018-06-10T21:48:51.311Z,9.60
2018-06-10T21:51:27.046Z,11.07
2018-06-10T21:53:56.709Z,11.90
2018-06-10T21:56:26.146Z,10.93
2018-06-10T21:58:55.681Z,9.57
2018-06-10T22:01:25.155Z,9.37
2018-06-10T22:03:54.686Z,9.87
2018-06-10T22:06:24.191Z,14.13
2018-06-10T22:08:53.803Z,10.37
2018-06-10T22:11:23.567Z,11.23
2018-06-10T22:13:52.987Z,9.30
2018-06-10T22:16:22.544Z,10.60
2018-06-10T22:18:52.122Z,9.87
2018-06-10T22:21:21.567Z,8.87
2018-06-10T22:23:51.109Z,11.73
2018-06-10T22:26:20.510Z,9.57
2018-06-10T22:28:49.629Z,9.47
2018-06-10T22:31:19.023Z,10.13
2018-06-10T22:33:48.470Z,10.70
2018-06-10T22:36:17.841Z,8.17
2018-06-10T22:38:47.185Z,9.67
2018-06-10T22:41:16.555Z,9.20
2018-06-10T22:43:45.944Z,10.70
2018-06-10T22:46:15.268Z,9.73
2018-06-10T22:48:44.639Z,10.40
2018-06-10T22:51:14.011Z,8.93
2018-06-10T22:54:30.139Z,9.67
2018-06-10T22:56:59.480Z,30.87
2018-06-10T22:59:28.802Z,22.37
2018-06-10T23:01:58.191Z,10.43
2018-06-10T23:04:27.629Z,11.17
2018-06-10T23:06:57.012Z,9.17
2018-06-10T23:09:27.156Z,10.30
2018-06-10T23:11:56.639Z,10.03
2018-06-10T23:14:26.116Z,9.47
2018-06-10T23:16:55.597Z,13.57
2018-06-10T23:19:25.112Z,9.07
2018-06-10T23:21:54.597Z,9.27
2018-06-10T23:24:24.100Z,9.20
2018-06-10T23:26:53.663Z,9.27
2018-06-10T23:29:23.641Z,9.23
2018-06-10T23:31:53.090Z,9.43
2018-06-10T23:34:22.687Z,8.83
2018-06-10T23:36:52.187Z,10.47
2018-06-10T23:39:21.705Z,8.77
2018-06-10T23:41:51.217Z,9.60
2018-06-10T23:44:20.678Z,9.47
2018-06-10T23:46:50.126Z,9.23
2018-06-10T23:49:19.597Z,8.90
2018-06-10T23:51:48.965Z,9.73
2018-06-10T23:54:18.328Z,9.10
2018-06-10T23:56:47.714Z,9.47
2018-06-10T23:59:17.058Z,11.20
